createdAt,value
2019-02-26T00:01:16.399Z,5.00
2019-02-26T00:03:49.556Z,5.00
2019-02-26T00:06:27.854Z,4.90
2019-02-26T00:09:06.181Z,4.80
2019-02-26T00:11:40.609Z,4.80
2019-02-26T00:14:17.700Z,4.90
2019-02-26T00:16:52.426Z,5.10
2019-02-26T00:19:26.076Z,5.20
2019-02-26T00:21:58.640Z,5.30
2019-02-26T00:24:33.019Z,5.30
2019-02-26T00:27:09.621Z,5.30
2019-02-26T00:29:44.316Z,5.30
2019-02-26T00:32:19.658Z,5.20
2019-02-26T00:34:55.354Z,5.20
2019-02-26T00:37:28.448Z,5.20
2019-02-26T00:40:04.168Z,5.20
2019-02-26T00:42:39.161Z,5.30
2019-02-26T00:45:13.772Z,5.50
2019-02-26T00:47:52.088Z,5.70
2019-02-26T00:50:28.136Z,5.70
2019-02-26T00:53:03.436Z,5.50
2019-02-26T00:55:39.628Z,5.40
2019-02-26T00:58:12.872Z,5.40
2019-02-26T01:00:44.609Z,5.20
2019-02-26T01:03:16.632Z,5.10
2019-02-26T01:05:48.379Z,4.90
2019-02-26T01:08:20.149Z,4.80
2019-02-26T01:10:51.849Z,4.80
2019-02-26T01:13:25.644Z,4.80
2019-02-26T01:15:56.679Z,4.70
2019-02-26T01:18:28.980Z,4.50
2019-02-26T01:21:02.541Z,4.40
2019-02-26T01:23:34.162Z,4.30
2019-02-26T01:26:05.679Z,4.00
2019-02-26T01:28:39.421Z,3.70
2019-02-26T01:31:10.434Z,3.50
2019-02-26T01:33:42.131Z,3.40
2019-02-26T01:36:14.458Z,3.20
2019-02-26T01:38:48.747Z,3.10
2019-02-26T01:41:22.262Z,2.90
2019-02-26T01:43:53.748Z,2.80
2019-02-26T01:46:25.618Z,2.80
2019-02-26T01:48:58.013Z,2.70
2019-02-26T01:51:30.571Z,2.70
2019-02-26T01:54:02.131Z,2.60
2019-02-26T01:56:34.030Z,2.90
2019-02-26T01:59:06.999Z,3.00
2019-02-26T02:01:42.021Z,3.10
2019-02-26T02:04:12.793Z,2.90
2019-02-26T02:07:06.327Z,2.80
2019-02-26T02:09:38.688Z,2.90
2019-02-26T02:12:11.125Z,2.80
2019-02-26T02:14:43.148Z,2.60
2019-02-26T02:22:56.037Z,2.40
2019-02-26T02:25:31.110Z,2.40
2019-02-26T02:28:02.813Z,2.40
2019-02-26T02:30:38.793Z,2.50
2019-02-26T02:33:08.974Z,2.50
2019-02-26T02:35:40.812Z,2.60
2019-02-26T02:38:12.419Z,2.70
2019-02-26T02:40:46.255Z,2.80
2019-02-26T02:43:18.064Z,2.80
2019-02-26T02:45:53.159Z,2.90
2019-02-26T02:48:24.481Z,2.90
2019-02-26T02:50:56.151Z,2.90
2019-02-26T02:53:30.185Z,2.90
2019-02-26T02:56:03.543Z,2.90
2019-02-26T02:58:34.211Z,2.90
2019-02-26T03:01:06.106Z,2.90
2019-02-26T03:03:37.876Z,2.90
2019-02-26T03:06:10.338Z,2.80
2019-02-26T03:08:45.108Z,2.80
2019-02-26T03:11:16.388Z,2.80
2019-02-26T03:13:49.309Z,2.70
2019-02-26T03:16:23.494Z,2.70
2019-02-26T03:18:54.647Z,2.70
2019-02-26T03:21:27.712Z,2.70
2019-02-26T03:24:00.873Z,2.70
2019-02-26T03:26:33.098Z,2.70
2019-02-26T03:29:04.691Z,2.80
2019-02-26T03:31:41.261Z,2.80
2019-02-26T03:34:14.655Z,2.70
2019-02-26T03:36:45.633Z,2.70
2019-02-26T03:39:16.807Z,2.70
2019-02-26T03:41:49.074Z,2.80
2019-02-26T03:44:21.467Z,2.90
2019-02-26T03:46:53.367Z,3.00
2019-02-26T03:49:27.111Z,3.00
2019-02-26T03:52:00.081Z,2.90
2019-02-26T03:54:31.651Z,2.90
2019-02-26T03:57:03.599Z,2.80
2019-02-26T03:59:35.431Z,2.70
2019-02-26T04:02:07.267Z,2.60
2019-02-26T04:04:40.624Z,2.50
2019-02-26T04:07:12.215Z,2.30
2019-02-26T04:09:44.330Z,2.10
2019-02-26T04:12:18.430Z,1.90
2019-02-26T04:14:50.960Z,1.80
2019-02-26T04:17:25.460Z,1.70
2019-02-26T04:19:55.890Z,1.60
2019-02-26T04:22:28.961Z,1.60
2019-02-26T04:25:11.485Z,1.50
2019-02-26T04:28:54.240Z,1.60
2019-02-26T04:32:29.429Z,1.50
2019-02-26T04:36:14.401Z,1.40
2019-02-26T04:40:01.455Z,1.30
2019-02-26T04:43:25.418Z,1.20
2019-02-26T04:46:53.923Z,1.20
2019-02-26T04:49:28.135Z,1.20
2019-02-26T04:51:59.173Z,1.20
2019-02-26T04:54:33.115Z,1.20
2019-02-26T04:57:04.126Z,1.30
2019-02-26T04:59:37.983Z,1.20
2019-02-26T05:02:09.369Z,1.20
2019-02-26T05:04:42.228Z,1.20
2019-02-26T05:07:16.271Z,1.10
2019-02-26T05:09:49.586Z,1.10
2019-02-26T05:12:20.712Z,1.10
2019-02-26T05:14:52.114Z,1.00
2019-02-26T05:17:26.376Z,1.00
2019-02-26T05:19:57.093Z,1.00
2019-02-26T05:22:30.873Z,1.00
2019-02-26T05:25:04.644Z,1.00
2019-02-26T05:27:36.362Z,1.10
2019-02-26T05:30:09.768Z,1.10
2019-02-26T05:32:42.490Z,1.10
2019-02-26T05:35:16.907Z,1.10
2019-02-26T05:37:48.022Z,1.00
2019-02-26T05:40:22.266Z,0.90
2019-02-26T05:42:55.568Z,0.80
2019-02-26T05:45:29.310Z,0.70
2019-02-26T05:48:00.307Z,0.70
2019-02-26T05:50:34.736Z,0.60
2019-02-26T05:53:07.532Z,0.60
2019-02-26T05:55:38.384Z,0.60
2019-02-26T05:58:12.455Z,0.60
2019-02-26T06:00:46.669Z,0.60
2019-02-26T06:03:18.846Z,0.60
2019-02-26T06:05:51.877Z,0.70
2019-02-26T06:08:26.712Z,0.70
2019-02-26T06:10:57.326Z,0.80
2019-02-26T06:13:31.609Z,0.90
2019-02-26T06:16:04.793Z,1.00
2019-02-26T06:18:35.985Z,1.20
2019-02-26T06:21:13.167Z,1.40
2019-02-26T06:23:46.128Z,1.60
2019-02-26T06:26:18.056Z,1.70
2019-02-26T06:28:55.586Z,2.20
2019-02-26T06:31:27.187Z,2.60
2019-02-26T06:34:01.485Z,3.40
2019-02-26T06:36:32.569Z,4.10
2019-02-26T06:39:06.022Z,4.70
2019-02-26T06:41:39.557Z,5.10
2019-02-26T06:44:11.309Z,5.40
2019-02-26T06:46:43.083Z,6.00
2019-02-26T06:49:16.839Z,6.20
2019-02-26T06:51:49.825Z,6.70
2019-02-26T06:54:24.367Z,6.70
2019-02-26T06:56:55.869Z,6.60
2019-02-26T06:59:34.286Z,6.60
2019-02-26T07:02:08.795Z,6.70
2019-02-26T07:04:40.256Z,7.40
2019-02-26T07:07:14.319Z,7.80
2019-02-26T07:09:45.587Z,8.20
2019-02-26T07:12:19.436Z,8.60
2019-02-26T07:14:51.360Z,9.00
2019-02-26T07:17:24.115Z,9.00
2019-02-26T07:19:57.714Z,9.10
2019-02-26T07:22:32.557Z,9.30
2019-02-26T07:25:05.945Z,9.90
2019-02-26T07:27:38.432Z,10.30
2019-02-26T07:30:10.803Z,10.00
2019-02-26T07:32:45.108Z,9.60
2019-02-26T07:35:16.618Z,9.20
2019-02-26T07:37:48.634Z,9.20
2019-02-26T07:40:21.520Z,9.10
2019-02-26T07:42:53.068Z,9.30
2019-02-26T07:45:27.326Z,9.70
2019-02-26T07:47:59.095Z,10.30
2019-02-26T07:50:37.055Z,10.80
2019-02-26T07:53:05.308Z,11.20
2019-02-26T07:55:38.208Z,12.20
2019-02-26T07:58:11.551Z,12.70
2019-02-26T08:00:49.119Z,13.20
2019-02-26T08:03:19.339Z,13.80
2019-02-26T08:05:51.000Z,14.30
2019-02-26T08:08:22.976Z,14.80
2019-02-26T08:10:55.017Z,15.20
2019-02-26T08:13:29.103Z,16.00
2019-02-26T08:16:02.329Z,15.70
2019-02-26T08:18:33.691Z,15.70
2019-02-26T08:21:05.545Z,15.70
2019-02-26T08:23:37.439Z,15.70
2019-02-26T08:26:09.306Z,16.10
2019-02-26T08:28:43.248Z,16.30
2019-02-26T08:31:16.040Z,16.30
2019-02-26T08:33:50.927Z,16.50
2019-02-26T08:36:21.771Z,16.90
2019-02-26T08:38:56.455Z,18.10
2019-02-26T08:41:27.001Z,18.70
2019-02-26T08:43:58.963Z,18.40
2019-02-26T08:46:30.942Z,18.00
2019-02-26T08:49:08.264Z,18.50
2019-02-26T08:51:38.882Z,19.00
2019-02-26T08:54:20.343Z,19.80
2019-02-26T08:56:44.692Z,19.40
2019-02-26T08:59:17.770Z,18.50
2019-02-26T09:01:50.068Z,18.40
2019-02-26T09:04:23.797Z,18.40
2019-02-26T09:06:57.081Z,18.10
2019-02-26T09:09:30.326Z,18.70
2019-02-26T09:12:03.379Z,18.90
2019-02-26T09:14:37.614Z,19.30
2019-02-26T09:17:09.199Z,19.90
2019-02-26T09:19:41.126Z,20.10
2019-02-26T09:22:14.948Z,20.60
2019-02-26T09:24:49.301Z,20.80
2019-02-26T09:27:20.417Z,21.00
2019-02-26T09:29:52.199Z,20.90
2019-02-26T09:32:23.899Z,20.50
2019-02-26T09:34:57.410Z,19.90
2019-02-26T09:37:29.573Z,19.50
2019-02-26T09:40:02.819Z,19.30
2019-02-26T09:42:34.832Z,18.70
2019-02-26T09:45:07.782Z,18.10
2019-02-26T09:47:39.976Z,17.90
2019-02-26T09:50:12.936Z,17.90
2019-02-26T09:52:47.778Z,18.00
2019-02-26T09:55:19.931Z,18.20
2019-02-26T09:57:51.904Z,18.20
2019-02-26T10:00:26.944Z,18.00
2019-02-26T10:02:57.672Z,17.60
2019-02-26T10:05:30.257Z,17.00
2019-02-26T10:08:04.953Z,16.60
2019-02-26T10:10:39.050Z,16.20
2019-02-26T10:13:09.640Z,16.20
2019-02-26T10:15:44.845Z,16.00
2019-02-26T10:18:16.841Z,15.80
2019-02-26T10:20:50.444Z,15.40
2019-02-26T10:23:24.062Z,15.40
2019-02-26T10:26:00.200Z,15.40
2019-02-26T10:28:35.157Z,15.20
2019-02-26T10:31:08.545Z,15.00
2019-02-26T10:33:41.120Z,14.90
2019-02-26T10:36:15.525Z,14.90
2019-02-26T10:38:46.655Z,14.90
2019-02-26T10:41:18.687Z,14.80
2019-02-26T10:43:50.413Z,14.90
2019-02-26T10:46:22.246Z,15.00
2019-02-26T10:48:54.080Z,15.10
2019-02-26T10:51:27.234Z,15.20
2019-02-26T10:53:59.858Z,15.20
2019-02-26T10:56:36.822Z,15.20
2019-02-26T10:59:09.381Z,15.30
2019-02-26T11:01:40.026Z,15.30
2019-02-26T11:04:11.864Z,15.30
2019-02-26T11:06:45.197Z,15.20
2019-02-26T11:09:19.255Z,15.20
2019-02-26T11:11:51.252Z,15.00
2019-02-26T11:14:23.129Z,15.00
2019-02-26T11:16:54.947Z,15.00
2019-02-26T11:19:32.905Z,15.10
2019-02-26T11:22:04.166Z,15.30
2019-02-26T11:24:36.181Z,15.50
2019-02-26T11:27:07.846Z,15.60
2019-02-26T11:29:40.734Z,15.70
2019-02-26T11:32:15.063Z,15.80
2019-02-26T11:34:45.934Z,15.80
2019-02-26T11:37:20.153Z,15.80
2019-02-26T11:39:52.683Z,15.60
2019-02-26T11:42:26.084Z,15.50
2019-02-26T11:44:58.563Z,15.40
2019-02-26T11:47:32.358Z,15.50
2019-02-26T11:50:07.113Z,15.70
2019-02-26T11:52:38.928Z,15.70
2019-02-26T11:55:11.568Z,15.70
2019-02-26T11:57:45.687Z,15.70
2019-02-26T12:00:31.326Z,15.60
2019-02-26T12:02:59.753Z,15.60
2019-02-26T12:05:35.461Z,15.50
2019-02-26T12:08:05.029Z,15.40
2019-02-26T12:10:37.969Z,15.30
2019-02-26T12:13:10.920Z,15.30
2019-02-26T12:15:43.146Z,15.30
2019-02-26T12:18:17.406Z,15.40
2019-02-26T12:20:48.910Z,15.40
2019-02-26T12:23:22.751Z,15.40
2019-02-26T12:25:55.501Z,15.50
2019-02-26T12:28:29.139Z,15.70
2019-02-26T12:31:04.276Z,15.90
2019-02-26T12:33:35.985Z,16.10
2019-02-26T12:36:09.808Z,16.40
2019-02-26T12:38:42.578Z,16.50
2019-02-26T12:41:15.963Z,16.80
2019-02-26T12:43:48.133Z,16.90
2019-02-26T12:46:21.709Z,17.00
2019-02-26T12:48:53.887Z,17.40
2019-02-26T12:51:28.098Z,17.80
2019-02-26T12:54:01.211Z,18.00
2019-02-26T12:56:34.116Z,18.30
2019-02-26T12:59:07.611Z,18.60
2019-02-26T13:01:42.176Z,18.40
2019-02-26T13:04:16.673Z,17.90
2019-02-26T13:10:22.342Z,17.80
2019-02-26T13:12:59.306Z,18.30
2019-02-26T13:15:30.353Z,18.30
2019-02-26T13:18:02.097Z,18.10
2019-02-26T13:20:33.979Z,18.60
2019-02-26T13:25:39.419Z,19.90
2019-02-26T13:28:11.541Z,19.50
2019-02-26T13:30:43.444Z,19.30
2019-02-26T13:33:17.845Z,19.60
2019-02-26T13:35:56.298Z,20.10
2019-02-26T13:38:24.875Z,20.00
2019-02-26T13:41:24.370Z,19.70
2019-02-26T13:43:30.650Z,19.00
2019-02-26T13:46:02.360Z,18.80
2019-02-26T13:48:33.956Z,19.60
2019-02-26T13:51:06.088Z,20.00
2019-02-26T13:53:37.829Z,20.80
2019-02-26T13:56:09.995Z,21.00
2019-02-26T13:58:42.540Z,20.70
2019-02-26T14:01:15.037Z,20.10
2019-02-26T14:03:46.642Z,19.90
2019-02-26T14:06:18.575Z,20.40
2019-02-26T14:08:51.106Z,20.40
2019-02-26T14:11:23.022Z,20.60
2019-02-26T14:13:54.955Z,20.20
2019-02-26T14:16:32.423Z,20.40
2019-02-26T14:19:00.492Z,20.50
2019-02-26T14:21:32.667Z,20.40
2019-02-26T14:24:04.932Z,20.70
2019-02-26T14:26:37.120Z,21.00
2019-02-26T14:29:09.349Z,21.50
2019-02-26T14:31:43.604Z,22.00
2019-02-26T14:34:15.597Z,22.30
2019-02-26T14:36:47.700Z,22.40
2019-02-26T14:39:19.539Z,22.10
2019-02-26T14:41:51.388Z,22.20
2019-02-26T14:44:23.372Z,22.20
2019-02-26T14:46:55.329Z,22.90
2019-02-26T14:49:27.160Z,23.00
2019-02-26T14:51:59.034Z,22.90
2019-02-26T14:54:30.976Z,22.60
2019-02-26T14:57:03.253Z,22.20
2019-02-26T14:59:35.231Z,22.10
2019-02-26T15:02:06.961Z,21.90
2019-02-26T15:04:38.549Z,21.90
2019-02-26T15:07:10.619Z,21.70
2019-02-26T15:09:43.037Z,21.60
2019-02-26T15:12:14.717Z,21.70
2019-02-26T15:14:48.793Z,21.30
2019-02-26T15:17:20.585Z,21.00
2019-02-26T15:19:53.316Z,20.90
2019-02-26T15:22:25.089Z,20.70
2019-02-26T15:24:57.277Z,20.80
2019-02-26T15:27:36.935Z,20.70
2019-02-26T15:30:02.707Z,20.60
2019-02-26T15:32:37.636Z,20.40
2019-02-26T15:35:10.130Z,20.20
2019-02-26T15:37:42.123Z,20.20
2019-02-26T15:40:15.485Z,20.10
2019-02-26T15:42:47.614Z,19.90
2019-02-26T15:45:24.922Z,19.70
2019-02-26T15:47:56.896Z,19.50
2019-02-26T15:50:30.469Z,19.30
2019-02-26T15:53:02.366Z,19.00
2019-02-26T15:55:34.220Z,18.70
2019-02-26T15:58:06.910Z,18.40
2019-02-26T16:00:38.808Z,18.20
2019-02-26T16:03:10.847Z,18.00
2019-02-26T16:05:43.091Z,17.80
2019-02-26T16:08:15.112Z,17.60
2019-02-26T16:10:47.002Z,17.50
2019-02-26T16:13:19.541Z,17.30
2019-02-26T16:15:51.601Z,17.20
2019-02-26T16:18:24.220Z,17.10
2019-02-26T16:20:56.614Z,16.90
2019-02-26T16:23:28.366Z,16.80
2019-02-26T16:26:00.815Z,16.60
2019-02-26T16:28:33.092Z,16.50
2019-02-26T16:31:05.380Z,16.30
2019-02-26T16:33:37.639Z,16.10
2019-02-26T16:36:09.813Z,16.00
2019-02-26T16:38:41.941Z,15.80
2019-02-26T16:41:15.304Z,15.60
2019-02-26T16:43:47.393Z,15.40
2019-02-26T16:46:20.018Z,15.20
2019-02-26T16:48:53.590Z,15.00
2019-02-26T16:51:26.599Z,14.90
2019-02-26T16:53:59.250Z,14.70
2019-02-26T16:56:31.720Z,14.50
2019-02-26T16:59:07.614Z,14.30
2019-02-26T17:01:38.730Z,14.00
2019-02-26T17:04:11.932Z,13.90
2019-02-26T17:06:44.341Z,13.70
2019-02-26T17:09:16.426Z,13.50
2019-02-26T17:11:48.953Z,13.30
2019-02-26T17:14:22.017Z,13.10
2019-02-26T17:16:54.307Z,13.00
2019-02-26T17:19:26.951Z,12.80
2019-02-26T17:21:59.162Z,12.70
2019-02-26T17:24:32.701Z,12.60
2019-02-26T17:27:06.456Z,12.60
2019-02-26T17:29:40.756Z,12.50
2019-02-26T17:32:12.757Z,12.30
2019-02-26T17:34:44.755Z,12.20
2019-02-26T17:37:17.651Z,12.10
2019-02-26T17:39:49.543Z,12.00
2019-02-26T17:42:22.406Z,11.90
2019-02-26T17:44:55.275Z,11.80
2019-02-26T17:47:28.231Z,11.80
2019-02-26T17:50:01.020Z,11.70
2019-02-26T17:52:33.847Z,11.50
2019-02-26T17:55:09.168Z,11.20
2019-02-26T17:57:40.538Z,11.00
2019-02-26T18:00:15.709Z,10.90
2019-02-26T18:02:48.672Z,10.80
2019-02-26T18:05:21.056Z,10.60
2019-02-26T18:07:54.023Z,10.60
2019-02-26T18:10:26.804Z,10.50
2019-02-26T18:13:00.232Z,10.40
2019-02-26T18:15:32.728Z,10.30
2019-02-26T18:18:05.051Z,10.20
2019-02-26T18:20:37.579Z,10.10
2019-02-26T18:23:10.391Z,10.00
2019-02-26T18:25:43.314Z,9.90
2019-02-26T18:28:15.743Z,9.80
2019-02-26T18:30:47.939Z,9.80
2019-02-26T18:33:21.625Z,9.70
2019-02-26T18:35:54.597Z,9.70
2019-02-26T18:38:28.237Z,9.70
2019-02-26T18:41:01.280Z,9.60
2019-02-26T18:43:34.355Z,9.60
2019-02-26T18:46:07.110Z,9.50
2019-02-26T18:48:40.774Z,9.50
2019-02-26T18:51:15.322Z,9.40
2019-02-26T18:53:48.114Z,9.30
2019-02-26T18:56:21.113Z,9.20
2019-02-26T18:58:54.933Z,9.10
2019-02-26T19:01:28.480Z,9.00
2019-02-26T19:04:02.514Z,9.00
2019-02-26T19:06:37.586Z,8.80
2019-02-26T19:09:12.285Z,8.70
2019-02-26T19:11:45.076Z,8.70
2019-02-26T19:14:17.935Z,8.60
2019-02-26T19:16:54.130Z,8.60
2019-02-26T19:19:27.421Z,8.50
2019-02-26T19:22:01.308Z,8.40
2019-02-26T19:24:35.870Z,8.30
2019-02-26T19:27:09.483Z,8.10
2019-02-26T19:29:42.799Z,8.00
2019-02-26T19:32:19.883Z,7.90
2019-02-26T19:34:53.805Z,8.00
2019-02-26T19:37:27.650Z,8.00
2019-02-26T19:40:05.730Z,8.00
2019-02-26T19:42:38.589Z,8.00
2019-02-26T19:45:14.147Z,7.90
2019-02-26T19:47:47.209Z,7.60
2019-02-26T19:50:20.870Z,7.30
2019-02-26T19:52:57.197Z,7.00
2019-02-26T19:55:33.381Z,6.80
2019-02-26T19:58:07.119Z,6.60
2019-02-26T20:00:41.170Z,6.50
2019-02-26T20:03:14.692Z,6.40
2019-02-26T20:05:48.014Z,6.30
2019-02-26T20:08:21.144Z,6.20
2019-02-26T20:10:54.970Z,6.10
2019-02-26T20:13:27.802Z,6.20
2019-02-26T20:16:00.268Z,6.10
2019-02-26T20:18:32.918Z,6.10
2019-02-26T20:21:06.925Z,6.10
2019-02-26T20:23:42.068Z,6.10
2019-02-26T20:26:16.529Z,6.00
2019-02-26T20:28:48.732Z,6.00
2019-02-26T20:31:21.886Z,6.00
2019-02-26T20:33:56.349Z,6.00
2019-02-26T20:36:29.835Z,6.00
2019-02-26T20:39:07.674Z,6.00
2019-02-26T20:41:38.877Z,5.90
2019-02-26T20:44:11.401Z,5.80
2019-02-26T20:46:45.627Z,5.90
2019-02-26T20:49:19.891Z,5.90
2019-02-26T20:51:52.811Z,5.90
2019-02-26T20:54:26.171Z,5.70
2019-02-26T20:56:58.570Z,5.60
2019-02-26T20:59:30.799Z,5.40
2019-02-26T21:02:03.439Z,5.30
2019-02-26T21:04:37.551Z,5.10
2019-02-26T21:07:10.331Z,5.00
2019-02-26T21:09:42.867Z,4.80
2019-02-26T21:12:14.971Z,4.70
2019-02-26T21:14:47.686Z,4.60
2019-02-26T21:17:19.850Z,4.50
2019-02-26T21:19:52.238Z,4.60
2019-02-26T21:22:24.574Z,4.70
2019-02-26T21:24:56.983Z,4.70
2019-02-26T21:27:32.301Z,4.80
2019-02-26T21:30:06.048Z,4.80
2019-02-26T21:32:39.305Z,4.70
2019-02-26T21:35:12.375Z,4.70
2019-02-26T21:37:48.899Z,4.60
2019-02-26T21:40:23.294Z,4.50
2019-02-26T21:42:55.725Z,4.50
2019-02-26T21:45:29.267Z,4.50
2019-02-26T21:48:02.764Z,4.50
2019-02-26T21:50:35.582Z,4.40
2019-02-26T21:53:07.410Z,4.50
2019-02-26T21:55:44.282Z,4.50
2019-02-26T21:58:15.040Z,4.40
2019-02-26T22:00:47.434Z,4.30
2019-02-26T22:03:20.275Z,4.20
2019-02-26T22:05:53.059Z,4.00
2019-02-26T22:08:25.957Z,4.00
2019-02-26T22:10:58.120Z,3.90
2019-02-26T22:13:30.483Z,3.80
2019-02-26T22:16:02.415Z,3.80
2019-02-26T22:18:34.455Z,3.70
2019-02-26T22:21:06.383Z,3.70
2019-02-26T22:23:38.848Z,3.50
2019-02-26T22:26:11.288Z,3.50
2019-02-26T22:28:43.946Z,3.50
2019-02-26T22:31:15.792Z,3.50
2019-02-26T22:33:48.135Z,3.50
2019-02-26T22:36:20.213Z,3.50
2019-02-26T22:38:52.359Z,3.50
2019-02-26T22:41:24.670Z,3.50
2019-02-26T22:43:57.258Z,3.50
2019-02-26T22:46:33.660Z,3.50
2019-02-26T22:49:04.163Z,3.50
2019-02-26T22:51:36.211Z,3.50
2019-02-26T22:54:09.832Z,3.50
2019-02-26T22:56:43.470Z,3.40
2019-02-26T22:59:15.767Z,3.30
2019-02-26T23:01:49.411Z,3.20
2019-02-26T23:04:21.314Z,3.10
2019-02-26T23:06:53.641Z,3.00
2019-02-26T23:09:28.212Z,3.00
2019-02-26T23:12:04.828Z,2.90
2019-02-26T23:14:38.755Z,2.90
2019-02-26T23:17:12.199Z,3.00
2019-02-26T23:19:44.893Z,3.00
2019-02-26T23:22:17.144Z,3.00
2019-02-26T23:24:49.017Z,3.00
2019-02-26T23:27:23.202Z,3.00
2019-02-26T23:29:54.974Z,2.90
2019-02-26T23:32:28.972Z,2.90
2019-02-26T23:35:09.915Z,2.90
2019-02-26T23:37:41.828Z,2.90
2019-02-26T23:40:13.987Z,2.80
2019-02-26T23:42:46.287Z,2.70
2019-02-26T23:45:18.934Z,2.70
2019-02-26T23:47:51.124Z,2.60
2019-02-26T23:50:22.747Z,2.50
2019-02-26T23:52:55.519Z,2.40
2019-02-26T23:55:28.111Z,2.30
2019-02-26T23:58:01.010Z,2.20
